Time;durP1;ratioP1;P1;durP2;ratioP2;P2;SDS_P1;SDS_P2;PMS_P1;PMS_P2;Temp;Humidity;BMP_temperature;BMP_pressure;BME280_temperature;BME280_humidity;BME280_pressure;Samples;Min_cycle;Max_cycle;Signal;HPM_P1;HPM_P2
2023/06/30 00:01:48;;;;;;;2.27;2.17;;;24.10;46.90;;;;;;5014157;28;20925;-73
2023/06/30 00:04:18;;;;;;;1.83;1.73;;;24.00;46.80;;;;;;5017383;28;20250;-74
2023/06/30 00:06:45;;;;;;;1.40;1.30;;;24.00;46.80;;;;;;5006191;28;20447;-74
2023/06/30 00:09:11;;;;;;;1.77;1.67;;;24.00;46.80;;;;;;5017254;28;21139;-74
2023/06/30 00:11:38;;;;;;;1.50;1.40;;;24.00;46.90;;;;;;5016394;28;20463;-74
2023/06/30 00:14:04;;;;;;;1.57;1.47;;;24.00;46.90;;;;;;4996446;28;20702;-73
2023/06/30 00:16:31;;;;;;;1.60;1.50;;;24.00;46.90;;;;;;5019198;28;20521;-74
2023/06/30 00:18:57;;;;;;;2.00;1.20;;;24.00;46.90;;;;;;5015308;28;20241;-79
2023/06/30 00:21:23;;;;;;;1.57;1.47;;;24.00;46.80;;;;;;5012376;28;20944;-73
2023/06/30 00:23:48;;;;;;;1.50;1.40;;;24.00;46.90;;;;;;4999582;28;20217;-75
2023/06/30 00:26:14;;;;;;;1.70;1.60;;;24.00;46.80;;;;;;5010035;28;20237;-75
2023/06/30 00:28:39;;;;;;;1.37;1.27;;;24.00;46.80;;;;;;5009028;28;20238;-76
2023/06/30 00:31:05;;;;;;;1.40;1.30;;;24.00;46.80;;;;;;5013084;28;20230;-75
2023/06/30 00:33:30;;;;;;;1.60;1.50;;;24.00;46.80;;;;;;5020680;28;20218;-75
2023/06/30 00:35:56;;;;;;;1.60;1.50;;;24.00;46.80;;;;;;5014684;28;20262;-74
2023/06/30 00:38:22;;;;;;;1.40;1.30;;;24.00;46.80;;;;;;5018090;28;20307;-75
2023/06/30 00:40:47;;;;;;;1.40;1.30;;;24.00;46.80;;;;;;5005426;28;20608;-75
2023/06/30 00:43:13;;;;;;;1.30;1.20;;;24.00;46.70;;;;;;5004888;28;20758;-75
2023/06/30 00:45:38;;;;;;;1.30;1.20;;;24.00;46.70;;;;;;5004063;28;20231;-75
2023/06/30 00:48:05;;;;;;;1.13;1.03;;;24.00;46.70;;;;;;5018333;28;20227;-75
2023/06/30 00:50:30;;;;;;;1.33;1.23;;;24.00;46.70;;;;;;5015549;28;20233;-75
2023/06/30 00:52:57;;;;;;;2.20;1.40;;;24.00;46.70;;;;;;5019814;28;20464;-75
2023/06/30 00:55:24;;;;;;;1.40;1.30;;;24.00;46.70;;;;;;5016813;28;20226;-75
2023/06/30 00:57:50;;;;;;;1.40;1.30;;;24.00;46.60;;;;;;5018865;28;20570;-75
2023/06/30 01:00:16;;;;;;;3.67;1.57;;;24.00;46.60;;;;;;4999843;28;20474;-75
2023/06/30 01:02:45;;;;;;;1.40;1.23;;;24.00;46.60;;;;;;5014973;28;20585;-75
2023/06/30 01:05:27;;;;;;;1.20;1.10;;;24.00;46.60;;;;;;5017222;28;20467;-75
2023/06/30 01:08:08;;;;;;;1.50;1.40;;;24.00;46.50;;;;;;5020291;28;20479;-74
2023/06/30 01:10:34;;;;;;;1.30;1.20;;;24.00;46.60;;;;;;5018552;28;20468;-75
2023/06/30 01:13:02;;;;;;;1.47;1.30;;;24.00;46.60;;;;;;5022137;28;20455;-75
2023/06/30 01:15:29;;;;;;;1.30;1.20;;;24.00;46.50;;;;;;5020982;28;20455;-75
2023/06/30 01:18:02;;;;;;;2.33;1.40;;;24.00;46.50;;;;;;5020555;28;20467;-74
2023/06/30 01:20:32;;;;;;;1.40;1.30;;;24.00;46.50;;;;;;5023038;28;20836;-75
2023/06/30 01:23:23;;;;;;;1.27;1.17;;;24.00;46.50;;;;;;5020700;28;20459;-75
2023/06/30 01:25:50;;;;;;;1.20;1.10;;;24.00;46.40;;;;;;5019020;28;20476;-75
2023/06/30 01:28:16;;;;;;;3.13;1.47;;;24.00;46.50;;;;;;5015861;28;20890;-75
2023/06/30 01:30:42;;;;;;;1.10;1.00;;;24.00;46.50;;;;;;5013534;28;20542;-75
2023/06/30 01:33:08;;;;;;;1.50;1.40;;;24.00;46.40;;;;;;5011687;28;20456;-74
2023/06/30 01:35:33;;;;;;;1.30;1.20;;;24.00;46.30;;;;;;5015028;28;20284;-75
2023/06/30 01:38:01;;;;;;;1.83;1.40;;;24.00;46.30;;;;;;5019856;28;20971;-74
2023/06/30 01:40:29;;;;;;;1.30;1.20;;;24.00;46.30;;;;;;5019682;28;20777;-74
2023/06/30 01:42:56;;;;;;;1.60;1.50;;;23.90;46.20;;;;;;5033470;28;21363;-74
2023/06/30 01:45:24;;;;;;;1.40;1.30;;;23.90;46.20;;;;;;5020571;28;20471;-75
2023/06/30 01:47:50;;;;;;;1.47;1.37;;;23.90;46.20;;;;;;5020376;28;20521;-75
2023/06/30 01:50:16;;;;;;;1.20;1.10;;;24.00;46.20;;;;;;5020898;28;21356;-75
2023/06/30 01:52:41;;;;;;;1.40;1.30;;;23.90;46.10;;;;;;5016995;28;20227;-75
2023/06/30 01:55:07;;;;;;;1.40;1.30;;;24.00;46.20;;;;;;5010406;28;20218;-75
2023/06/30 01:57:33;;;;;;;1.37;1.27;;;23.90;46.10;;;;;;5011832;28;20717;-75
2023/06/30 01:59:58;;;;;;;1.40;1.10;;;23.90;46.10;;;;;;5011648;28;20230;-74
2023/06/30 02:02:24;;;;;;;1.30;1.20;;;23.90;46.10;;;;;;5018978;28;20320;-74
2023/06/30 02:04:50;;;;;;;1.20;1.10;;;23.90;46.00;;;;;;5021984;28;20743;-75
2023/06/30 02:07:15;;;;;;;2.90;1.60;;;23.90;46.00;;;;;;5004040;28;20239;-75
2023/06/30 02:09:41;;;;;;;1.37;1.27;;;24.00;46.10;;;;;;5000383;28;20222;-74
2023/06/30 02:12:06;;;;;;;1.30;1.20;;;23.90;46.00;;;;;;5006364;28;20218;-75
2023/06/30 02:14:32;;;;;;;1.40;1.30;;;23.90;46.10;;;;;;5016490;28;20218;-74
2023/06/30 02:16:57;;;;;;;1.30;1.20;;;23.90;46.70;;;;;;5010365;28;20226;-75
2023/06/30 02:19:23;;;;;;;1.30;1.20;;;23.90;46.00;;;;;;5016466;28;20219;-74
2023/06/30 02:21:50;;;;;;;1.40;1.30;;;23.90;45.90;;;;;;5003392;28;20326;-75
2023/06/30 02:24:16;;;;;;;1.43;1.33;;;23.90;45.90;;;;;;5005799;28;20452;-75
2023/06/30 02:26:42;;;;;;;1.33;1.23;;;23.90;45.80;;;;;;5005070;28;20480;-75
2023/06/30 02:29:07;;;;;;;1.60;1.50;;;23.90;45.90;;;;;;5001536;28;20228;-75
2023/06/30 02:31:33;;;;;;;1.40;1.30;;;23.90;45.80;;;;;;5015968;28;20222;-75
2023/06/30 02:33:58;;;;;;;1.50;1.40;;;23.90;45.80;;;;;;5014348;28;20230;-75
2023/06/30 02:36:24;;;;;;;1.40;1.30;;;23.90;45.90;;;;;;5016936;28;20241;-74
2023/06/30 02:38:50;;;;;;;1.43;1.33;;;23.90;45.80;;;;;;5014613;28;20242;-75
2023/06/30 02:41:15;;;;;;;1.50;1.40;;;23.90;45.80;;;;;;5018779;28;20230;-75
2023/06/30 02:43:42;;;;;;;1.77;1.53;;;23.90;45.80;;;;;;5005185;28;20220;-75
2023/06/30 02:46:08;;;;;;;1.50;1.40;;;23.90;45.70;;;;;;4997128;28;20290;-75
2023/06/30 02:48:33;;;;;;;1.73;1.30;;;23.90;45.80;;;;;;4997232;28;20514;-75
2023/06/30 02:50:59;;;;;;;1.50;1.40;;;23.90;45.70;;;;;;5007303;28;21032;-75
2023/06/30 02:53:24;;;;;;;1.50;1.40;;;23.90;45.70;;;;;;5008016;28;20369;-75
2023/06/30 02:55:50;;;;;;;1.47;1.37;;;23.90;45.70;;;;;;5016726;28;20222;-75
2023/06/30 02:58:16;;;;;;;1.50;1.40;;;23.90;45.70;;;;;;5017398;28;20253;-75
2023/06/30 03:00:41;;;;;;;1.50;1.40;;;23.90;45.70;;;;;;5015003;28;20218;-75
2023/06/30 03:03:07;;;;;;;1.50;1.40;;;23.90;45.70;;;;;;5020829;28;20289;-75
2023/06/30 03:05:36;;;;;;;1.93;1.80;;;23.90;45.70;;;;;;5017961;28;20241;-75
2023/06/30 03:08:03;;;;;;;2.00;1.90;;;23.90;45.60;;;;;;5015095;28;20660;-75
2023/06/30 03:10:29;;;;;;;1.53;1.43;;;23.90;45.60;;;;;;5012346;28;20564;-75
2023/06/30 03:12:54;;;;;;;1.47;1.37;;;23.90;45.60;;;;;;5011406;28;20440;-74
2023/06/30 03:15:20;;;;;;;1.83;1.70;;;23.90;45.60;;;;;;5017988;28;21364;-75
2023/06/30 03:17:45;;;;;;;2.03;1.83;;;23.90;45.60;;;;;;5012825;28;20227;-74
2023/06/30 03:20:12;;;;;;;1.70;1.60;;;23.90;45.50;;;;;;5020038;28;20678;-75
2023/06/30 03:22:39;;;;;;;1.73;1.63;;;23.90;45.50;;;;;;5020789;28;20230;-75
2023/06/30 03:25:06;;;;;;;1.90;1.80;;;23.90;45.50;;;;;;5013212;28;20461;-75
2023/06/30 03:27:32;;;;;;;1.77;1.63;;;23.90;45.40;;;;;;5010295;28;20476;-74
2023/06/30 03:29:58;;;;;;;1.73;1.63;;;23.90;45.50;;;;;;5011718;28;20466;-75
2023/06/30 03:32:23;;;;;;;1.87;1.77;;;23.90;45.40;;;;;;5019965;28;20215;-75
2023/06/30 03:34:49;;;;;;;2.13;1.60;;;23.90;45.40;;;;;;5019412;28;20222;-74
2023/06/30 03:37:14;;;;;;;2.80;1.90;;;23.90;45.40;;;;;;5002921;28;20692;-75
2023/06/30 03:39:40;;;;;;;1.60;1.50;;;23.90;45.40;;;;;;5019484;28;20222;-75
2023/06/30 03:42:05;;;;;;;3.33;1.80;;;23.90;45.40;;;;;;5015044;28;20229;-75
2023/06/30 03:44:31;;;;;;;1.97;1.83;;;23.90;45.40;;;;;;5014616;28;20300;-76
2023/06/30 03:46:57;;;;;;;2.53;2.33;;;23.90;45.50;;;;;;5016812;28;20219;-74
2023/06/30 03:49:22;;;;;;;1.77;1.67;;;23.90;45.40;;;;;;5015311;28;20690;-75
2023/06/30 03:51:49;;;;;;;1.73;1.63;;;23.90;45.40;;;;;;5017781;28;20234;-75
2023/06/30 03:54:14;;;;;;;1.80;1.70;;;23.90;45.30;;;;;;5008757;28;20468;-75
2023/06/30 03:56:40;;;;;;;1.40;1.30;;;23.90;45.40;;;;;;5017209;28;20460;-73
2023/06/30 03:59:09;;;;;;;1.90;1.80;;;23.80;45.30;;;;;;5018989;28;20230;-74
2023/06/30 04:01:39;;;;;;;1.57;1.47;;;23.90;45.40;;;;;;5017624;28;20276;-74
2023/06/30 04:04:28;;;;;;;;;;;;;;;;;;;;;
2023/06/30 04:06:53;;;;;;;1.80;1.70;;;23.90;45.40;;;;;;4986521;28;20461;-74
2023/06/30 04:09:19;;;;;;;4.93;1.70;;;23.80;45.20;;;;;;5015578;28;20510;-74
2023/06/30 04:11:44;;;;;;;2.27;2.10;;;23.90;45.40;;;;;;5024800;28;20557;-75
2023/06/30 04:14:10;;;;;;;1.90;1.80;;;23.80;45.20;;;;;;5019062;28;20770;-75
2023/06/30 04:16:35;;;;;;;2.10;2.00;;;23.90;45.40;;;;;;5011416;28;21319;-75
2023/06/30 04:19:01;;;;;;;1.83;1.73;;;23.80;45.20;;;;;;5011172;28;20261;-74
2023/06/30 04:21:27;;;;;;;2.00;1.90;;;23.80;45.20;;;;;;5018696;28;20231;-74
2023/06/30 04:23:52;;;;;;;1.90;1.80;;;23.80;45.30;;;;;;5016066;28;20218;-75
2023/06/30 04:26:18;;;;;;;2.37;1.80;;;23.80;45.20;;;;;;4998226;28;20763;-74
2023/06/30 04:28:47;;;;;;;1.90;1.80;;;23.80;45.20;;;;;;5011537;28;20238;-75
2023/06/30 04:31:13;;;;;;;2.17;1.97;;;23.80;45.20;;;;;;5016430;28;20701;-74
2023/06/30 04:33:38;;;;;;;1.50;1.40;;;23.80;45.10;;;;;;5018574;28;20464;-74
2023/06/30 04:36:06;;;;;;;1.90;1.80;;;23.80;45.20;;;;;;5017434;28;20234;-74
2023/06/30 04:38:32;;;;;;;2.30;2.10;;;23.80;45.20;;;;;;5018648;28;20752;-74
2023/06/30 04:40:57;;;;;;;2.70;2.23;;;23.80;45.10;;;;;;4997071;28;20460;-73
2023/06/30 04:43:23;;;;;;;2.07;1.87;;;23.80;45.10;;;;;;5021580;28;20218;-73
2023/06/30 04:45:48;;;;;;;1.70;1.60;;;23.80;45.10;;;;;;5012774;28;20258;-73
2023/06/30 04:48:14;;;;;;;2.80;1.97;;;23.80;45.10;;;;;;5009196;28;20347;-74
2023/06/30 04:50:39;;;;;;;1.90;1.80;;;23.90;45.20;;;;;;5015677;28;20253;-74
2023/06/30 04:53:05;;;;;;;2.83;1.90;;;23.80;45.00;;;;;;5000372;28;20220;-77
2023/06/30 04:55:30;;;;;;;2.00;1.90;;;23.80;45.00;;;;;;5003195;28;22144;-76
2023/06/30 04:57:56;;;;;;;4.23;1.93;;;23.90;45.20;;;;;;5007540;28;20227;-75
2023/06/30 05:00:22;;;;;;;2.27;2.03;;;23.90;45.20;;;;;;5016392;28;20230;-75
2023/06/30 05:02:49;;;;;;;2.03;1.93;;;23.90;45.20;;;;;;5011618;28;20214;-75
2023/06/30 05:05:15;;;;;;;1.90;1.80;;;23.90;45.20;;;;;;5009979;28;20496;-76
2023/06/30 05:07:41;;;;;;;1.97;1.60;;;23.90;45.20;;;;;;5006502;28;20469;-75
2023/06/30 05:10:07;;;;;;;1.70;1.60;;;23.90;45.30;;;;;;5030938;28;20823;-72
2023/06/30 05:12:32;;;;;;;2.43;1.70;;;23.90;45.30;;;;;;5013693;28;20215;-74
2023/06/30 05:14:58;;;;;;;2.10;1.90;;;23.90;45.40;;;;;;5013153;28;20279;-74
2023/06/30 05:17:23;;;;;;;3.53;1.80;;;23.90;45.40;;;;;;4997576;28;20271;-73
2023/06/30 05:19:49;;;;;;;2.87;2.07;;;23.90;45.40;;;;;;5018209;28;20226;-75
2023/06/30 05:22:15;;;;;;;1.80;1.70;;;23.90;45.40;;;;;;5016419;28;20220;-75
2023/06/30 05:24:41;;;;;;;1.80;1.70;;;23.90;45.40;;;;;;5012650;28;20207;-76
2023/06/30 05:27:06;;;;;;;2.40;1.47;;;23.90;45.50;;;;;;5002991;28;20233;-73
2023/06/30 05:29:32;;;;;;;2.13;1.70;;;23.90;45.50;;;;;;5013411;28;20308;-76
2023/06/30 05:31:58;;;;;;;1.70;1.60;;;23.90;45.50;;;;;;5023683;28;20333;-73
2023/06/30 05:34:23;;;;;;;1.90;1.80;;;23.90;45.60;;;;;;5008240;28;21024;-71
2023/06/30 05:36:49;;;;;;;2.53;1.80;;;24.00;45.70;;;;;;5026300;28;21322;-73
2023/06/30 05:39:14;;;;;;;1.93;1.83;;;24.00;45.70;;;;;;5007481;28;21302;-73
2023/06/30 05:41:41;;;;;;;1.70;1.60;;;24.00;45.70;;;;;;5004739;28;20264;-75
2023/06/30 05:44:07;;;;;;;1.80;1.70;;;24.00;45.70;;;;;;5018559;28;20317;-74
2023/06/30 05:46:39;;;;;;;2.00;1.80;;;24.00;45.70;;;;;;5008780;28;20607;-74
2023/06/30 05:49:05;;;;;;;1.70;1.60;;;24.00;45.60;;;;;;5002555;28;20476;-74
2023/06/30 05:51:33;;;;;;;1.60;1.50;;;24.00;45.60;;;;;;5010347;28;20574;-74
2023/06/30 05:53:59;;;;;;;2.43;1.67;;;24.00;45.70;;;;;;5011585;28;20550;-73
2023/06/30 05:56:24;;;;;;;3.27;1.67;;;24.00;45.60;;;;;;5000617;28;20971;-75
2023/06/30 05:58:50;;;;;;;2.13;1.60;;;24.10;45.80;;;;;;5018967;28;20229;-75
2023/06/30 06:01:16;;;;;;;1.60;1.50;;;24.10;45.80;;;;;;4991862;28;20245;-75
2023/06/30 06:03:42;;;;;;;3.10;1.73;;;24.10;45.90;;;;;;4991086;28;21415;-74
2023/06/30 06:06:08;;;;;;;1.93;1.47;;;24.10;45.80;;;;;;5011294;28;20229;-74
2023/06/30 06:08:33;;;;;;;1.63;1.53;;;24.10;45.80;;;;;;5004869;28;20242;-75
2023/06/30 06:10:59;;;;;;;1.73;1.63;;;24.10;45.90;;;;;;5009009;28;20471;-76
2023/06/30 06:13:35;;;;;;;3.00;1.90;;;24.10;45.80;;;;;;5000128;28;20276;-76
2023/06/30 06:16:01;;;;;;;1.73;1.40;;;24.10;45.90;;;;;;5004191;28;20231;-77
2023/06/30 06:18:27;;;;;;;1.70;1.60;;;24.10;45.90;;;;;;5010285;28;21499;-74
2023/06/30 06:20:53;;;;;;;1.60;1.50;;;24.10;45.90;;;;;;5011781;28;20486;-76
2023/06/30 06:23:19;;;;;;;1.87;1.70;;;24.10;45.90;;;;;;4999091;28;20630;-76
2023/06/30 06:25:44;;;;;;;1.57;1.33;;;24.10;45.90;;;;;;4997074;28;20243;-75
2023/06/30 06:28:10;;;;;;;2.27;1.50;;;24.10;46.00;;;;;;5011454;28;20617;-75
2023/06/30 06:30:35;;;;;;;1.93;1.57;;;24.10;46.00;;;;;;5002845;28;20310;-74
2023/06/30 06:33:01;;;;;;;1.77;1.67;;;24.10;46.00;;;;;;5002497;28;20230;-74
2023/06/30 06:35:26;;;;;;;1.70;1.60;;;24.10;46.00;;;;;;5009091;28;20230;-73
2023/06/30 06:37:52;;;;;;;3.93;1.70;;;24.10;46.00;;;;;;5027423;28;20218;-72
2023/06/30 06:40:17;;;;;;;1.50;1.40;;;24.10;46.00;;;;;;5013724;28;20234;-75
2023/06/30 06:42:43;;;;;;;1.90;1.67;;;24.10;46.00;;;;;;5009831;28;20245;-74
2023/06/30 06:45:09;;;;;;;1.80;1.63;;;24.10;46.00;;;;;;5012681;28;20305;-72
2023/06/30 06:48:12;;;;;;;6.07;2.63;;;24.10;46.10;;;;;;5012461;28;20265;-72
2023/06/30 06:50:37;;;;;;;1.60;1.50;;;24.10;46.10;;;;;;5011424;28;20215;-72
2023/06/30 06:53:03;;;;;;;1.60;1.50;;;24.10;46.10;;;;;;5000805;28;20452;-72
2023/06/30 06:55:28;;;;;;;1.40;1.30;;;24.10;46.10;;;;;;4992599;28;20215;-73
2023/06/30 06:57:54;;;;;;;1.67;1.57;;;24.10;46.10;;;;;;4997517;28;20223;-75
2023/06/30 07:00:20;;;;;;;1.70;1.60;;;24.10;46.10;;;;;;4998846;28;20223;-71
2023/06/30 07:02:45;;;;;;;1.90;1.30;;;24.10;46.20;;;;;;4998423;28;20227;-72
2023/06/30 07:05:11;;;;;;;1.63;1.53;;;24.10;46.20;;;;;;5006465;28;20674;-71
2023/06/30 07:07:37;;;;;;;1.47;1.37;;;24.10;46.20;;;;;;5013046;28;20218;-72
2023/06/30 07:10:03;;;;;;;3.90;1.27;;;24.10;46.10;;;;;;5009078;28;20222;-72
2023/06/30 07:12:28;;;;;;;2.30;2.07;;;24.10;46.10;;;;;;5002661;28;20223;-69
2023/06/30 07:14:54;;;;;;;1.40;1.30;;;24.10;46.10;;;;;;5007416;28;20453;-71
2023/06/30 07:17:20;;;;;;;2.67;1.50;;;24.10;46.00;;;;;;4998755;28;20227;-71
2023/06/30 07:19:45;;;;;;;2.37;1.53;;;24.10;46.00;;;;;;5012463;28;20223;-69
2023/06/30 07:22:11;;;;;;;3.77;1.50;;;24.10;46.00;;;;;;4985883;28;20272;-69
2023/06/30 07:24:36;;;;;;;3.20;1.40;;;24.10;46.00;;;;;;5003534;28;20230;-70
2023/06/30 07:27:02;;;;;;;1.70;1.47;;;24.10;46.00;;;;;;5006743;28;20241;-70
2023/06/30 07:29:27;;;;;;;1.43;1.33;;;24.10;45.90;;;;;;5008989;28;20605;-70
2023/06/30 07:31:53;;;;;;;1.40;1.30;;;24.10;45.90;;;;;;5010426;28;20227;-70
2023/06/30 07:34:19;;;;;;;4.20;1.47;;;24.10;45.90;;;;;;5011253;28;20321;-70
2023/06/30 07:36:48;;;;;;;1.50;1.40;;;24.10;45.70;;;;;;5011573;28;20223;-70
2023/06/30 07:39:13;;;;;;;2.47;1.60;;;24.10;45.50;;;;;;5008086;28;20253;-67
2023/06/30 07:41:39;;;;;;;1.30;1.20;;;24.10;45.40;;;;;;5007598;28;21741;-72
2023/06/30 07:44:05;;;;;;;12.77;1.83;;;24.10;45.30;;;;;;5013848;28;20226;-73
2023/06/30 07:46:31;;;;;;;1.77;1.37;;;24.10;45.30;;;;;;5010958;28;20215;-79
2023/06/30 07:48:56;;;;;;;1.77;1.40;;;24.10;45.20;;;;;;4992821;28;20817;-78
2023/06/30 07:51:22;;;;;;;2.40;2.00;;;24.10;45.20;;;;;;5013663;28;20245;-77
2023/06/30 07:53:48;;;;;;;1.90;1.40;;;24.10;45.20;;;;;;5005346;28;20227;-76
2023/06/30 07:56:13;;;;;;;2.27;1.47;;;24.10;45.20;;;;;;5013796;28;20288;-76
2023/06/30 07:58:39;;;;;;;2.17;1.13;;;24.10;45.10;;;;;;5006967;28;20230;-77
2023/06/30 08:01:04;;;;;;;2.80;1.40;;;24.10;45.20;;;;;;5014689;28;20226;-76
2023/06/30 08:03:30;;;;;;;3.50;1.20;;;24.10;45.00;;;;;;5003759;28;20658;-76
2023/06/30 08:05:57;;;;;;;3.63;1.37;;;24.10;44.90;;;;;;5004728;28;20760;-75
2023/06/30 08:08:23;;;;;;;2.40;1.50;;;24.10;44.70;;;;;;4993546;28;20245;-76
2023/06/30 08:10:49;;;;;;;1.20;1.10;;;24.10;44.60;;;;;;5003060;28;21374;-81
2023/06/30 08:13:15;;;;;;;1.40;1.30;;;24.10;44.50;;;;;;5008115;28;20234;-75
2023/06/30 08:15:41;;;;;;;1.63;1.33;;;24.10;44.30;;;;;;5006119;28;20581;-76
2023/06/30 08:18:07;;;;;;;1.40;1.30;;;24.10;44.10;;;;;;5008124;28;20821;-77
2023/06/30 08:20:33;;;;;;;1.63;1.27;;;24.10;44.10;;;;;;5020019;28;20708;-77
2023/06/30 08:22:59;;;;;;;1.30;1.20;;;24.10;43.90;;;;;;5004296;28;20230;-79
2023/06/30 08:25:25;;;;;;;1.00;1.00;;;24.10;43.80;;;;;;5004791;28;20471;-77
2023/06/30 08:27:51;;;;;;;1.27;1.10;;;24.10;43.60;;;;;;5021210;28;20233;-78
2023/06/30 08:30:17;;;;;;;2.00;1.30;;;24.10;43.50;;;;;;5010153;28;20475;-80
2023/06/30 08:32:44;;;;;;;59.20;5.80;;;24.10;43.40;;;;;;5002135;28;20469;-82
2023/06/30 08:35:09;;;;;;;1.73;1.20;;;24.10;43.20;;;;;;5018820;28;20784;-82
2023/06/30 08:37:35;;;;;;;1.10;1.00;;;24.10;43.10;;;;;;5021855;28;20463;-82
2023/06/30 08:40:00;;;;;;;1.73;1.10;;;24.10;42.90;;;;;;5021721;28;20219;-81
2023/06/30 08:42:30;;;;;;;1.43;1.10;;;24.10;42.80;;;;;;5023465;28;20748;-80
2023/06/30 08:44:57;;;;;;;1.10;1.00;;;24.10;42.80;;;;;;5004178;28;20308;-81
2023/06/30 08:47:27;;;;;;;3.57;1.30;;;24.10;42.80;;;;;;5012059;28;21143;-80
2023/06/30 08:49:54;;;;;;;1.57;1.10;;;24.10;42.80;;;;;;5009839;28;20822;-79
2023/06/30 08:52:21;;;;;;;2.10;1.43;;;24.10;42.80;;;;;;5014214;28;21069;-79
2023/06/30 08:54:46;;;;;;;1.20;1.10;;;24.10;42.80;;;;;;4998853;28;20694;-79
2023/06/30 08:57:15;;;;;;;1.30;1.20;;;24.10;42.80;;;;;;5015229;28;20452;-78
2023/06/30 08:59:44;;;;;;;2.67;0.97;;;24.10;42.80;;;;;;5010989;28;20230;-79
2023/06/30 09:02:13;;;;;;;3.20;1.40;;;24.10;42.80;;;;;;5012599;28;20521;-79
2023/06/30 09:04:40;;;;;;;1.27;1.10;;;24.10;42.80;;;;;;5008849;28;21168;-78
2023/06/30 09:07:09;;;;;;;1.23;1.13;;;24.10;42.80;;;;;;5017813;28;21150;-78
2023/06/30 09:09:42;;;;;;;2.00;1.30;;;24.10;42.90;;;;;;5018567;28;21064;-79
2023/06/30 09:12:11;;;;;;;2.20;1.20;;;24.10;42.90;;;;;;5017905;28;20990;-78
2023/06/30 09:14:40;;;;;;;1.30;1.10;;;24.10;42.80;;;;;;5017537;28;20467;-78
2023/06/30 09:17:06;;;;;;;3.07;1.10;;;24.10;42.80;;;;;;5005182;28;20456;-77
2023/06/30 09:19:31;;;;;;;1.10;1.00;;;24.10;42.70;;;;;;5011700;28;20467;-79
2023/06/30 09:21:57;;;;;;;2.30;1.30;;;24.10;42.70;;;;;;5009581;28;20683;-79
2023/06/30 09:24:23;;;;;;;1.40;1.10;;;24.10;42.70;;;;;;5017999;28;20225;-76
2023/06/30 09:26:52;;;;;;;2.60;0.93;;;24.10;42.60;;;;;;5013930;28;20719;-77
2023/06/30 09:29:21;;;;;;;1.70;1.13;;;24.10;42.50;;;;;;5015227;28;20473;-78
2023/06/30 09:31:51;;;;;;;1.23;1.00;;;24.10;42.60;;;;;;4995914;28;20450;-78
2023/06/30 09:34:19;;;;;;;1.20;1.10;;;24.10;42.50;;;;;;5008652;28;20497;-79
2023/06/30 09:36:49;;;;;;;0.97;0.93;;;24.10;42.50;;;;;;5010558;28;20467;-77
2023/06/30 09:39:15;;;;;;;1.50;1.07;;;24.10;42.50;;;;;;5019902;28;20452;-78
2023/06/30 09:41:42;;;;;;;1.03;0.90;;;24.20;42.60;;;;;;5011048;28;20741;-78
2023/06/30 09:44:09;;;;;;;1.00;1.00;;;24.10;42.50;;;;;;5005744;28;20468;-78
2023/06/30 09:46:35;;;;;;;1.43;1.10;;;24.10;42.70;;;;;;5013294;28;20837;-80
2023/06/30 09:49:04;;;;;;;1.17;1.07;;;24.10;42.50;;;;;;5004823;28;20456;-79
2023/06/30 09:51:32;;;;;;;1.83;1.10;;;24.10;42.50;;;;;;4997994;28;20219;-81
2023/06/30 09:53:57;;;;;;;1.20;1.10;;;24.10;42.50;;;;;;5007631;28;20467;-78
2023/06/30 09:56:23;;;;;;;1.20;1.10;;;24.10;42.50;;;;;;5016332;28;20460;-79
2023/06/30 09:58:59;;;;;;;1.20;0.87;;;24.10;42.40;;;;;;5018199;28;20241;-76
2023/06/30 10:01:25;;;;;;;1.20;1.10;;;24.10;42.40;;;;;;5001675;28;20518;-76
2023/06/30 10:03:54;;;;;;;1.20;1.10;;;24.10;42.30;;;;;;4995512;28;20460;-77
2023/06/30 10:06:23;;;;;;;1.67;1.00;;;24.10;42.40;;;;;;5015425;28;20600;-77
2023/06/30 10:08:51;;;;;;;1.33;0.90;;;24.10;42.20;;;;;;5027283;28;20814;-77
2023/06/30 10:11:18;;;;;;;1.10;1.00;;;24.10;42.20;;;;;;5006838;28;20491;-76
2023/06/30 10:13:45;;;;;;;1.10;1.00;;;24.10;42.20;;;;;;5015109;28;20496;-77
2023/06/30 10:16:11;;;;;;;2.23;1.23;;;24.10;42.10;;;;;;5013004;28;20471;-75
2023/06/30 10:18:41;;;;;;;1.30;1.20;;;24.10;42.10;;;;;;5018231;28;20519;-77
2023/06/30 10:21:07;;;;;;;1.43;1.00;;;24.10;42.10;;;;;;5016820;28;20559;-75
2023/06/30 10:23:34;;;;;;;1.20;1.10;;;24.10;42.10;;;;;;5004739;28;20483;-76
2023/06/30 10:26:01;;;;;;;1.23;1.13;;;24.10;42.20;;;;;;4992760;28;20230;-78
2023/06/30 10:28:28;;;;;;;2.20;2.10;;;24.10;42.10;;;;;;5004598;28;20898;-79
2023/06/30 10:30:53;;;;;;;1.33;1.23;;;24.10;42.20;;;;;;5011831;28;20510;-78
2023/06/30 10:33:19;;;;;;;1.30;1.20;;;24.10;42.20;;;;;;5000713;28;20471;-80
2023/06/30 10:35:45;;;;;;;1.60;1.00;;;24.10;42.30;;;;;;5010717;28;20232;-79
2023/06/30 10:38:13;;;;;;;1.00;0.90;;;24.10;42.30;;;;;;5011600;28;20241;-80
2023/06/30 10:40:38;;;;;;;1.27;0.90;;;24.10;42.50;;;;;;5016508;28;20464;-78
2023/06/30 10:43:05;;;;;;;1.40;1.30;;;24.10;42.60;;;;;;5001666;28;21122;-78
2023/06/30 10:45:36;;;;;;;1.20;1.10;;;24.10;42.60;;;;;;4990741;28;20254;-77
2023/06/30 10:48:09;;;;;;;1.10;1.00;;;24.10;42.60;;;;;;5017491;28;20491;-75
2023/06/30 10:50:43;;;;;;;1.93;1.17;;;24.10;42.60;;;;;;5001735;28;20789;-78
2023/06/30 10:53:16;;;;;;;1.03;0.93;;;24.10;42.50;;;;;;4991953;28;20464;-75
2023/06/30 10:55:43;;;;;;;1.13;1.03;;;24.10;42.60;;;;;;4993259;28;21841;-77
2023/06/30 10:58:09;;;;;;;1.10;1.00;;;24.10;42.60;;;;;;5006208;28;21144;-77
2023/06/30 11:00:34;;;;;;;1.40;1.30;;;24.10;42.80;;;;;;5003112;28;20473;-74
2023/06/30 11:03:03;;;;;;;1.17;1.07;;;24.10;42.80;;;;;;5013248;28;20726;-76
2023/06/30 11:05:30;;;;;;;1.20;1.10;;;24.10;42.90;;;;;;5013137;28;20349;-77
2023/06/30 11:08:01;;;;;;;1.33;1.10;;;24.10;42.80;;;;;;5005901;28;20476;-76
2023/06/30 11:10:34;;;;;;;1.20;1.10;;;24.20;42.90;;;;;;4993876;28;20472;-76
2023/06/30 11:13:02;;;;;;;1.23;1.13;;;24.10;42.80;;;;;;5006279;28;21074;-77
2023/06/30 11:15:37;;;;;;;1.43;1.03;;;24.10;42.80;;;;;;5009172;28;20498;-76
2023/06/30 11:18:11;;;;;;;1.20;1.10;;;24.10;42.80;;;;;;5004017;28;20459;-76
2023/06/30 11:20:36;;;;;;;1.20;1.10;;;24.10;42.80;;;;;;5002311;28;20455;-76
2023/06/30 11:23:04;;;;;;;1.30;1.20;;;24.10;42.90;;;;;;4998034;28;20649;-80
2023/06/30 11:25:30;;;;;;;1.83;1.00;;;24.10;42.80;;;;;;4999273;28;20255;-74
2023/06/30 11:27:57;;;;;;;1.10;1.00;;;24.10;42.90;;;;;;4999344;28;20467;-74
2023/06/30 11:30:23;;;;;;;1.23;1.13;;;24.10;42.80;;;;;;5013123;28;20530;-74
2023/06/30 11:32:58;;;;;;;1.07;0.90;;;24.10;42.80;;;;;;5015271;28;20535;-74
2023/06/30 11:35:24;;;;;;;1.23;1.13;;;24.10;42.80;;;;;;5009364;28;20510;-75
2023/06/30 11:37:51;;;;;;;1.30;1.20;;;24.10;42.90;;;;;;5007545;28;20453;-74
2023/06/30 11:40:17;;;;;;;1.10;1.10;;;24.10;42.80;;;;;;5009525;28;20537;-76
2023/06/30 11:42:43;;;;;;;1.37;1.27;;;24.10;42.80;;;;;;5005583;28;20490;-75
2023/06/30 11:45:10;;;;;;;1.20;1.10;;;24.10;43.00;;;;;;5009696;28;20942;-75
2023/06/30 11:47:38;;;;;;;1.00;1.00;;;24.10;42.80;;;;;;5006065;28;20218;-75
2023/06/30 11:50:08;;;;;;;1.20;1.10;;;24.10;42.80;;;;;;4991063;28;20471;-75
2023/06/30 11:52:34;;;;;;;1.30;1.20;;;24.10;42.80;;;;;;5014033;28;20448;-76
2023/06/30 11:55:07;;;;;;;1.40;1.30;;;24.10;42.80;;;;;;5009595;28;20978;-73
2023/06/30 11:57:34;;;;;;;1.23;1.13;;;24.10;42.80;;;;;;5004352;28;20471;-75
2023/06/30 12:00:06;;;;;;;1.20;1.10;;;24.10;42.80;;;;;;5003459;28;20847;-75
2023/06/30 12:02:32;;;;;;;1.30;1.10;;;24.10;42.80;;;;;;5006723;28;20449;-75
2023/06/30 12:04:58;;;;;;;1.33;1.00;;;24.10;42.80;;;;;;5007990;28;22622;-74
2023/06/30 12:07:23;;;;;;;1.30;1.20;;;24.10;43.70;;;;;;4999134;28;20211;-74
2023/06/30 12:09:59;;;;;;;1.07;0.97;;;24.10;42.80;;;;;;4999927;28;20245;-74
2023/06/30 12:12:26;;;;;;;1.27;1.17;;;24.10;42.80;;;;;;4998173;28;20347;-74
2023/06/30 12:14:52;;;;;;;1.20;1.10;;;24.10;42.80;;;;;;4994736;28;20444;-75
2023/06/30 12:17:18;;;;;;;1.30;1.20;;;24.10;42.80;;;;;;5003832;28;20474;-75
2023/06/30 12:19:45;;;;;;;1.10;1.00;;;24.10;42.80;;;;;;4997601;28;20461;-75
2023/06/30 12:22:12;;;;;;;1.37;1.27;;;24.10;42.80;;;;;;5017220;28;20705;-76
2023/06/30 12:24:41;;;;;;;1.40;1.30;;;24.10;42.80;;;;;;5003656;28;21194;-78
2023/06/30 12:27:08;;;;;;;1.13;1.03;;;24.10;42.80;;;;;;4994883;28;20994;-73
2023/06/30 12:29:35;;;;;;;1.30;1.20;;;24.10;42.80;;;;;;4984920;28;20480;-75
2023/06/30 12:32:10;;;;;;;1.20;1.10;;;24.10;42.80;;;;;;4989948;28;21023;-80
2023/06/30 12:34:36;;;;;;;1.20;1.10;;;24.20;42.90;;;;;;4987628;28;21072;-79
2023/06/30 12:37:02;;;;;;;1.10;1.10;;;24.10;42.80;;;;;;5004977;28;20467;-77
2023/06/30 12:39:28;;;;;;;1.40;1.30;;;24.10;42.80;;;;;;5000953;28;20226;-77
2023/06/30 12:41:54;;;;;;;1.30;1.20;;;24.10;42.80;;;;;;4989909;28;20472;-77
2023/06/30 12:44:21;;;;;;;1.50;1.40;;;24.20;42.90;;;;;;5004258;28;20606;-78
2023/06/30 12:46:58;;;;;;;1.37;1.27;;;24.10;42.80;;;;;;5001002;28;21016;-80